Share

Mullingar, Ireland

Tyrrellspass (ICOWESTM3) Elev 331 ft | 53.39 °N, 7.38 °W | Change Station

Current weather conditions updated 1 minute ago

Mostly Cloudy
Mostly Cloudy
46.0 °F
Feels Like 46 °F
N
0.0
Wind Variable Wind from ENE
Gusts 0.0 mph
Sunrise 6:25 AM
Sunset 8:33 PM
Moon Waning Gibbous

Today is forecast to be Much Cooler than yesterday.

Pressure 30.09 in
Visibility 6.2 miles
Clouds Few 1000 ft
Scattered Clouds 2200 ft
Mostly Cloudy 3000 ft
Windchill 46 °F
Dew Point 25 °F
Humidity 43%
Rainfall 0.00 in
Snow Depth Not available.
UV 0 out of 16
Pollen Not available.
Air Quality Not available.
Flu Activity Not available.
METAR EIDW 170330Z 24012KT 9999 FEW010 SCT022 BKN030 10/08 Q1019 NOSIG

More Conditions Fewer Conditions

Pressure 30.09 in
Visibility 6.2 miles
Clouds Few 1000 ft
Scattered Clouds 2200 ft
Mostly Cloudy 3000 ft
Windchill 46 °F
Dew Point 25 °F
Humidity 43%
Rainfall 0.00 in
Snow Depth Not available.
UV 0 out of 16
Pollen Not available.
Air Quality Not available.
Flu Activity Not available.
METAR EIDW 170330Z 24012KT 9999 FEW010 SCT022 BKN030 10/08 Q1019 NOSIG

More Conditions Fewer Conditions

10-Day Forecast

Almanac

Astronomy

Apr. 17, 2014 Rise Set
Actual Time 6:25 AM IST 8:33 PM IST
Civil Twilight 5:47 AM IST 9:11 PM IST
Nautical Twilight 5:00 AM IST 9:59 PM IST
Astronomical Twilight 4:05 AM IST 10:55 PM IST
Moon 11:23 PM IST 7:32 AM IST
Length of Visible Light 15h 24m
Length of Day
14h 08m
Tomorrow will be 4m 6s longer.
Waning Gibbous, 96% of the Moon is Illuminated
Apr 16
Waning Gibbous
Apr 22
Last Quarter
Apr 29
New
May 6
First Quarter
May 14
Full

Yesterday's Extremes

Country Highs Country Lows

Community

  • symphony in blue....
    symphony in blue....
  • Dawn Surprise
    Dawn Surprise
  • Yucca delight
    Yucca delight
  • Sunset inside of the Ocean
    Sunset inside of the Ocean
  • Lunar eclipse 15 April 2014
    Lunar eclipse 15 April 2014

WunderPhotos

Upload Photos

1,701,845 photos uploaded!

WunderBlogs® & News

Nearby

Snow Depth

Not available.

Coastal Water Temperatures

Place Temperature
No Stations Reporting

Earthquake Activity

City Distance Mag. Time & Date
No recent earthquake activity has been reported nearby.
Minimum magnitude displayed is 2.5.

Nearby Weather Stations

Station Location Temp. Windchill Dew Point Humidity Wind Precip. Elev Updated Type
Tyrrellspass, Tyrrellspass 46.0 °F 46 °F 25 °F 43% ENE  at  0.0 mph 0.00 in / hr 331 ft 4:45 AM IST Normal

Show More Stations Show Fewer Stations

What do you think?

We're not finished. Please let us know what you like, what you don't like, and what you are still missing.